sensor_id;sensor_type;location;lat;lon;timestamp;P1;durP1;ratioP1;P2;durP2;ratioP2
37973;SDS011;23796;51.458;7.000;2023-07-16T00:02:03;3.65;;;1.30;;
37973;SDS011;23796;51.458;7.000;2023-07-16T00:04:30;5.15;;;1.42;;
37973;SDS011;23796;51.458;7.000;2023-07-16T00:06:56;4.15;;;1.20;;
37973;SDS011;23796;51.458;7.000;2023-07-16T00:09:23;2.55;;;0.93;;
37973;SDS011;23796;51.458;7.000;2023-07-16T00:11:49;3.38;;;1.40;;
37973;SDS011;23796;51.458;7.000;2023-07-16T00:14:14;3.33;;;1.30;;
37973;SDS011;23796;51.458;7.000;2023-07-16T00:16:40;3.33;;;1.33;;
37973;SDS011;23796;51.458;7.000;2023-07-16T00:19:06;3.50;;;1.20;;
37973;SDS011;23796;51.458;7.000;2023-07-16T00:21:31;3.13;;;1.17;;
37973;SDS011;23796;51.458;7.000;2023-07-16T00:23:57;2.65;;;1.17;;
37973;SDS011;23796;51.458;7.000;2023-07-16T00:26:23;2.88;;;1.00;;
37973;SDS011;23796;51.458;7.000;2023-07-16T00:28:51;3.80;;;1.40;;
37973;SDS011;23796;51.458;7.000;2023-07-16T00:31:19;4.45;;;1.38;;
37973;SDS011;23796;51.458;7.000;2023-07-16T00:33:47;2.95;;;1.40;;
37973;SDS011;23796;51.458;7.000;2023-07-16T00:36:15;3.58;;;1.20;;
37973;SDS011;23796;51.458;7.000;2023-07-16T00:38:43;4.65;;;1.88;;
37973;SDS011;23796;51.458;7.000;2023-07-16T00:41:10;4.55;;;1.60;;
37973;SDS011;23796;51.458;7.000;2023-07-16T00:43:37;5.10;;;2.53;;
37973;SDS011;23796;51.458;7.000;2023-07-16T00:46:03;5.22;;;2.30;;
37973;SDS011;23796;51.458;7.000;2023-07-16T00:48:31;3.90;;;2.15;;
37973;SDS011;23796;51.458;7.000;2023-07-16T00:50:57;4.68;;;2.08;;
37973;SDS011;23796;51.458;7.000;2023-07-16T00:53:27;5.63;;;2.15;;
37973;SDS011;23796;51.458;7.000;2023-07-16T00:55:55;4.00;;;1.98;;
37973;SDS011;23796;51.458;7.000;2023-07-16T00:58:21;3.85;;;2.00;;
37973;SDS011;23796;51.458;7.000;2023-07-16T01:00:46;4.43;;;2.05;;
37973;SDS011;23796;51.458;7.000;2023-07-16T01:03:14;5.07;;;1.92;;
37973;SDS011;23796;51.458;7.000;2023-07-16T01:05:47;5.45;;;2.08;;
37973;SDS011;23796;51.458;7.000;2023-07-16T01:08:21;4.68;;;1.98;;
37973;SDS011;23796;51.458;7.000;2023-07-16T01:10:55;3.85;;;1.73;;
37973;SDS011;23796;51.458;7.000;2023-07-16T01:13:23;5.07;;;1.58;;
37973;SDS011;23796;51.458;7.000;2023-07-16T01:15:49;4.68;;;2.05;;
37973;SDS011;23796;51.458;7.000;2023-07-16T01:18:15;3.63;;;1.42;;
37973;SDS011;23796;51.458;7.000;2023-07-16T01:20:41;3.13;;;1.40;;
37973;SDS011;23796;51.458;7.000;2023-07-16T01:30:53;5.25;;;1.33;;
37973;SDS011;23796;51.458;7.000;2023-07-16T01:33:24;3.53;;;1.60;;
37973;SDS011;23796;51.458;7.000;2023-07-16T01:35:55;4.28;;;1.52;;
37973;SDS011;23796;51.458;7.000;2023-07-16T01:38:26;2.80;;;1.25;;
37973;SDS011;23796;51.458;7.000;2023-07-16T01:40:52;3.78;;;1.33;;
37973;SDS011;23796;51.458;7.000;2023-07-16T01:43:20;3.40;;;1.40;;
37973;SDS011;23796;51.458;7.000;2023-07-16T01:45:46;4.88;;;1.55;;
37973;SDS011;23796;51.458;7.000;2023-07-16T01:50:41;4.50;;;1.48;;
37973;SDS011;23796;51.458;7.000;2023-07-16T01:53:07;4.78;;;1.52;;
37973;SDS011;23796;51.458;7.000;2023-07-16T01:55:32;3.88;;;1.30;;
37973;SDS011;23796;51.458;7.000;2023-07-16T01:58:00;4.38;;;1.45;;
37973;SDS011;23796;51.458;7.000;2023-07-16T02:00:26;4.43;;;1.40;;
37973;SDS011;23796;51.458;7.000;2023-07-16T02:02:54;5.22;;;1.45;;
37973;SDS011;23796;51.458;7.000;2023-07-16T02:05:19;3.10;;;1.20;;
37973;SDS011;23796;51.458;7.000;2023-07-16T02:07:45;4.53;;;1.35;;
37973;SDS011;23796;51.458;7.000;2023-07-16T02:10:10;3.45;;;1.48;;
37973;SDS011;23796;51.458;7.000;2023-07-16T02:12:36;5.22;;;1.48;;
37973;SDS011;23796;51.458;7.000;2023-07-16T02:15:06;5.35;;;1.77;;
37973;SDS011;23796;51.458;7.000;2023-07-16T02:17:34;4.15;;;1.80;;
37973;SDS011;23796;51.458;7.000;2023-07-16T02:20:00;5.93;;;1.40;;
37973;SDS011;23796;51.458;7.000;2023-07-16T02:22:27;4.35;;;1.60;;
37973;SDS011;23796;51.458;7.000;2023-07-16T02:24:52;3.83;;;1.50;;
37973;SDS011;23796;51.458;7.000;2023-07-16T02:27:18;5.05;;;1.83;;
37973;SDS011;23796;51.458;7.000;2023-07-16T02:29:43;4.38;;;1.50;;
37973;SDS011;23796;51.458;7.000;2023-07-16T02:32:09;4.50;;;1.55;;
37973;SDS011;23796;51.458;7.000;2023-07-16T02:34:34;7.10;;;3.10;;
37973;SDS011;23796;51.458;7.000;2023-07-16T02:37:03;5.38;;;1.65;;
37973;SDS011;23796;51.458;7.000;2023-07-16T02:39:31;3.40;;;1.63;;
37973;SDS011;23796;51.458;7.000;2023-07-16T02:42:00;5.25;;;1.50;;
37973;SDS011;23796;51.458;7.000;2023-07-16T02:44:25;4.28;;;1.60;;
37973;SDS011;23796;51.458;7.000;2023-07-16T02:46:53;4.13;;;1.38;;
37973;SDS011;23796;51.458;7.000;2023-07-16T02:49:19;3.60;;;1.60;;
37973;SDS011;23796;51.458;7.000;2023-07-16T02:51:46;5.80;;;1.33;;
37973;SDS011;23796;51.458;7.000;2023-07-16T02:54:12;3.22;;;1.27;;
37973;SDS011;23796;51.458;7.000;2023-07-16T02:56:37;4.70;;;1.40;;
37973;SDS011;23796;51.458;7.000;2023-07-16T02:59:03;3.58;;;1.20;;
37973;SDS011;23796;51.458;7.000;2023-07-16T03:01:29;4.70;;;1.00;;
37973;SDS011;23796;51.458;7.000;2023-07-16T03:03:54;5.70;;;1.92;;
37973;SDS011;23796;51.458;7.000;2023-07-16T03:06:20;3.47;;;1.38;;
37973;SDS011;23796;51.458;7.000;2023-07-16T03:08:48;4.85;;;1.33;;
37973;SDS011;23796;51.458;7.000;2023-07-16T03:11:16;4.32;;;1.50;;
37973;SDS011;23796;51.458;7.000;2023-07-16T03:13:42;6.53;;;1.50;;
37973;SDS011;23796;51.458;7.000;2023-07-16T03:16:13;5.35;;;1.70;;
37973;SDS011;23796;51.458;7.000;2023-07-16T03:18:40;3.28;;;1.33;;
37973;SDS011;23796;51.458;7.000;2023-07-16T03:21:08;5.80;;;1.48;;
37973;SDS011;23796;51.458;7.000;2023-07-16T03:23:37;5.35;;;1.52;;
37973;SDS011;23796;51.458;7.000;2023-07-16T03:26:03;4.72;;;1.52;;
37973;SDS011;23796;51.458;7.000;2023-07-16T03:28:30;4.32;;;1.20;;
37973;SDS011;23796;51.458;7.000;2023-07-16T03:30:58;8.20;;;1.48;;
37973;SDS011;23796;51.458;7.000;2023-07-16T03:33:24;7.22;;;1.80;;
37973;SDS011;23796;51.458;7.000;2023-07-16T03:35:49;3.15;;;1.10;;
37973;SDS011;23796;51.458;7.000;2023-07-16T03:38:15;5.43;;;1.63;;
37973;SDS011;23796;51.458;7.000;2023-07-16T03:40:48;8.65;;;1.77;;
37973;SDS011;23796;51.458;7.000;2023-07-16T03:43:15;4.95;;;1.30;;
37973;SDS011;23796;51.458;7.000;2023-07-16T03:45:44;3.17;;;1.20;;
37973;SDS011;23796;51.458;7.000;2023-07-16T03:48:10;5.85;;;1.95;;
37973;SDS011;23796;51.458;7.000;2023-07-16T03:50:36;6.80;;;2.05;;
37973;SDS011;23796;51.458;7.000;2023-07-16T03:53:01;5.03;;;1.63;;
37973;SDS011;23796;51.458;7.000;2023-07-16T03:55:28;6.65;;;1.83;;
37973;SDS011;23796;51.458;7.000;2023-07-16T03:57:54;5.03;;;1.80;;
37973;SDS011;23796;51.458;7.000;2023-07-16T04:00:20;5.50;;;1.45;;
37973;SDS011;23796;51.458;7.000;2023-07-16T04:02:45;6.15;;;1.83;;
37973;SDS011;23796;51.458;7.000;2023-07-16T04:05:11;5.32;;;1.63;;
37973;SDS011;23796;51.458;7.000;2023-07-16T04:07:36;4.90;;;1.52;;
37973;SDS011;23796;51.458;7.000;2023-07-16T04:10:02;4.40;;;1.65;;
37973;SDS011;23796;51.458;7.000;2023-07-16T04:12:28;5.57;;;1.58;;
37973;SDS011;23796;51.458;7.000;2023-07-16T04:14:57;6.53;;;1.50;;
37973;SDS011;23796;51.458;7.000;2023-07-16T04:17:23;6.47;;;1.55;;
37973;SDS011;23796;51.458;7.000;2023-07-16T04:19:49;6.03;;;1.50;;
37973;SDS011;23796;51.458;7.000;2023-07-16T04:22:17;4.53;;;1.58;;
37973;SDS011;23796;51.458;7.000;2023-07-16T04:24:43;6.90;;;1.52;;
37973;SDS011;23796;51.458;7.000;2023-07-16T04:27:08;6.38;;;1.90;;
37973;SDS011;23796;51.458;7.000;2023-07-16T04:29:34;5.43;;;1.92;;
37973;SDS011;23796;51.458;7.000;2023-07-16T04:31:59;5.35;;;1.90;;
37973;SDS011;23796;51.458;7.000;2023-07-16T04:34:27;6.22;;;1.88;;
37973;SDS011;23796;51.458;7.000;2023-07-16T04:36:53;5.82;;;2.00;;
37973;SDS011;23796;51.458;7.000;2023-07-16T04:39:21;6.97;;;3.03;;
37973;SDS011;23796;51.458;7.000;2023-07-16T04:41:46;6.60;;;2.10;;
37973;SDS011;23796;51.458;7.000;2023-07-16T04:44:12;4.60;;;1.58;;
37973;SDS011;23796;51.458;7.000;2023-07-16T04:46:40;8.52;;;1.85;;
37973;SDS011;23796;51.458;7.000;2023-07-16T04:49:05;5.95;;;2.03;;
37973;SDS011;23796;51.458;7.000;2023-07-16T04:51:31;4.97;;;1.80;;
37973;SDS011;23796;51.458;7.000;2023-07-16T04:53:57;6.78;;;2.28;;
37973;SDS011;23796;51.458;7.000;2023-07-16T04:56:25;4.68;;;1.83;;
37973;SDS011;23796;51.458;7.000;2023-07-16T04:58:50;6.63;;;1.70;;
37973;SDS011;23796;51.458;7.000;2023-07-16T05:01:16;5.10;;;1.90;;
37973;SDS011;23796;51.458;7.000;2023-07-16T05:03:45;6.75;;;1.98;;
37973;SDS011;23796;51.458;7.000;2023-07-16T05:06:11;5.93;;;1.85;;
37973;SDS011;23796;51.458;7.000;2023-07-16T05:08:36;5.00;;;1.90;;
37973;SDS011;23796;51.458;7.000;2023-07-16T05:11:02;5.97;;;2.35;;
37973;SDS011;23796;51.458;7.000;2023-07-16T05:13:27;5.00;;;1.90;;
37973;SDS011;23796;51.458;7.000;2023-07-16T05:15:53;6.35;;;2.13;;
37973;SDS011;23796;51.458;7.000;2023-07-16T05:18:19;7.45;;;2.28;;
37973;SDS011;23796;51.458;7.000;2023-07-16T05:20:49;6.57;;;1.92;;
37973;SDS011;23796;51.458;7.000;2023-07-16T05:23:14;7.50;;;3.50;;
37973;SDS011;23796;51.458;7.000;2023-07-16T05:25:49;4.82;;;1.60;;
37973;SDS011;23796;51.458;7.000;2023-07-16T05:28:16;5.15;;;2.30;;
37973;SDS011;23796;51.458;7.000;2023-07-16T05:30:42;5.60;;;2.20;;
37973;SDS011;23796;51.458;7.000;2023-07-16T05:33:09;6.00;;;2.05;;
37973;SDS011;23796;51.458;7.000;2023-07-16T05:35:41;6.78;;;1.92;;
37973;SDS011;23796;51.458;7.000;2023-07-16T05:38:07;7.15;;;2.15;;
37973;SDS011;23796;51.458;7.000;2023-07-16T05:40:32;5.72;;;1.77;;
37973;SDS011;23796;51.458;7.000;2023-07-16T05:42:58;5.55;;;1.90;;
37973;SDS011;23796;51.458;7.000;2023-07-16T05:45:23;5.72;;;1.95;;
37973;SDS011;23796;51.458;7.000;2023-07-16T05:47:49;5.18;;;1.88;;
37973;SDS011;23796;51.458;7.000;2023-07-16T05:50:17;9.30;;;2.20;;
37973;SDS011;23796;51.458;7.000;2023-07-16T05:52:43;4.50;;;1.70;;
37973;SDS011;23796;51.458;7.000;2023-07-16T05:55:13;7.05;;;2.00;;
37973;SDS011;23796;51.458;7.000;2023-07-16T05:57:40;5.03;;;2.13;;
37973;SDS011;23796;51.458;7.000;2023-07-16T06:00:07;5.28;;;2.30;;
37973;SDS011;23796;51.458;7.000;2023-07-16T06:02:36;5.55;;;2.30;;
37973;SDS011;23796;51.458;7.000;2023-07-16T06:05:02;7.28;;;2.10;;
37973;SDS011;23796;51.458;7.000;2023-07-16T06:07:30;7.38;;;2.80;;
37973;SDS011;23796;51.458;7.000;2023-07-16T06:09:56;7.47;;;2.60;;
37973;SDS011;23796;51.458;7.000;2023-07-16T06:12:22;6.57;;;2.17;;
37973;SDS011;23796;51.458;7.000;2023-07-16T06:14:50;7.00;;;2.17;;
37973;SDS011;23796;51.458;7.000;2023-07-16T06:17:16;6.30;;;2.80;;
37973;SDS011;23796;51.458;7.000;2023-07-16T06:19:42;10.18;;;2.75;;
37973;SDS011;23796;51.458;7.000;2023-07-16T06:22:08;9.50;;;2.70;;
37973;SDS011;23796;51.458;7.000;2023-07-16T06:24:36;5.93;;;2.30;;
37973;SDS011;23796;51.458;7.000;2023-07-16T06:27:01;7.88;;;3.08;;
37973;SDS011;23796;51.458;7.000;2023-07-16T06:29:27;9.27;;;2.88;;
37973;SDS011;23796;51.458;7.000;2023-07-16T06:31:56;8.05;;;3.03;;
37973;SDS011;23796;51.458;7.000;2023-07-16T06:34:23;6.57;;;2.85;;
37973;SDS011;23796;51.458;7.000;2023-07-16T06:36:49;6.25;;;2.78;;
37973;SDS011;23796;51.458;7.000;2023-07-16T06:39:15;8.50;;;2.97;;
37973;SDS011;23796;51.458;7.000;2023-07-16T06:41:40;6.65;;;2.83;;
37973;SDS011;23796;51.458;7.000;2023-07-16T06:44:06;8.57;;;2.85;;
37973;SDS011;23796;51.458;7.000;2023-07-16T06:46:32;8.70;;;2.95;;
37973;SDS011;23796;51.458;7.000;2023-07-16T06:48:57;7.43;;;2.78;;
37973;SDS011;23796;51.458;7.000;2023-07-16T06:51:23;9.00;;;3.35;;
37973;SDS011;23796;51.458;7.000;2023-07-16T06:53:48;7.95;;;2.90;;
37973;SDS011;23796;51.458;7.000;2023-07-16T06:56:14;6.57;;;3.35;;
37973;SDS011;23796;51.458;7.000;2023-07-16T06:58:42;6.60;;;3.17;;
37973;SDS011;23796;51.458;7.000;2023-07-16T07:01:07;7.32;;;3.47;;
37973;SDS011;23796;51.458;7.000;2023-07-16T07:03:33;5.82;;;2.83;;
37973;SDS011;23796;51.458;7.000;2023-07-16T07:06:02;5.15;;;2.88;;
37973;SDS011;23796;51.458;7.000;2023-07-16T07:08:28;7.55;;;3.30;;
37973;SDS011;23796;51.458;7.000;2023-07-16T07:10:54;5.72;;;2.97;;
37973;SDS011;23796;51.458;7.000;2023-07-16T07:13:20;6.93;;;3.10;;
37973;SDS011;23796;51.458;7.000;2023-07-16T07:15:46;9.77;;;3.20;;
37973;SDS011;23796;51.458;7.000;2023-07-16T07:18:12;6.95;;;2.63;;
37973;SDS011;23796;51.458;7.000;2023-07-16T07:20:38;6.70;;;3.10;;
37973;SDS011;23796;51.458;7.000;2023-07-16T07:23:09;6.60;;;3.30;;
37973;SDS011;23796;51.458;7.000;2023-07-16T07:25:35;7.95;;;3.78;;
37973;SDS011;23796;51.458;7.000;2023-07-16T07:28:03;7.30;;;2.72;;
37973;SDS011;23796;51.458;7.000;2023-07-16T07:30:28;7.68;;;2.95;;
37973;SDS011;23796;51.458;7.000;2023-07-16T07:32:54;7.63;;;3.00;;
37973;SDS011;23796;51.458;7.000;2023-07-16T07:35:22;9.15;;;3.17;;
37973;SDS011;23796;51.458;7.000;2023-07-16T07:37:48;8.50;;;4.22;;
37973;SDS011;23796;51.458;7.000;2023-07-16T07:40:13;8.23;;;3.30;;
37973;SDS011;23796;51.458;7.000;2023-07-16T07:42:39;7.55;;;3.03;;
37973;SDS011;23796;51.458;7.000;2023-07-16T07:45:07;7.55;;;3.25;;
37973;SDS011;23796;51.458;7.000;2023-07-16T07:47:33;7.05;;;3.20;;
37973;SDS011;23796;51.458;7.000;2023-07-16T07:49:58;8.57;;;3.17;;
37973;SDS011;23796;51.458;7.000;2023-07-16T07:52:26;7.30;;;2.92;;
37973;SDS011;23796;51.458;7.000;2023-07-16T07:54:52;8.65;;;3.10;;
37973;SDS011;23796;51.458;7.000;2023-07-16T07:57:19;8.73;;;3.70;;
37973;SDS011;23796;51.458;7.000;2023-07-16T07:59:47;6.38;;;3.00;;
37973;SDS011;23796;51.458;7.000;2023-07-16T08:02:13;7.50;;;3.38;;
37973;SDS011;23796;51.458;7.000;2023-07-16T08:04:38;7.20;;;3.20;;
37973;SDS011;23796;51.458;7.000;2023-07-16T08:07:04;7.38;;;3.28;;
37973;SDS011;23796;51.458;7.000;2023-07-16T08:09:29;6.82;;;2.95;;
37973;SDS011;23796;51.458;7.000;2023-07-16T08:11:57;8.70;;;3.33;;
37973;SDS011;23796;51.458;7.000;2023-07-16T08:14:23;8.57;;;3.40;;
37973;SDS011;23796;51.458;7.000;2023-07-16T08:16:53;5.47;;;3.10;;
37973;SDS011;23796;51.458;7.000;2023-07-16T08:19:19;6.18;;;2.97;;
37973;SDS011;23796;51.458;7.000;2023-07-16T08:21:46;7.38;;;3.20;;
37973;SDS011;23796;51.458;7.000;2023-07-16T08:24:12;10.52;;;3.50;;
37973;SDS011;23796;51.458;7.000;2023-07-16T08:26:40;6.88;;;2.90;;
37973;SDS011;23796;51.458;7.000;2023-07-16T08:29:08;6.18;;;2.85;;
37973;SDS011;23796;51.458;7.000;2023-07-16T08:31:34;6.10;;;2.80;;
37973;SDS011;23796;51.458;7.000;2023-07-16T08:33:59;8.88;;;3.80;;
37973;SDS011;23796;51.458;7.000;2023-07-16T08:36:25;8.00;;;3.30;;
37973;SDS011;23796;51.458;7.000;2023-07-16T08:38:51;9.70;;;3.92;;
37973;SDS011;23796;51.458;7.000;2023-07-16T08:41:17;8.43;;;3.17;;
37973;SDS011;23796;51.458;7.000;2023-07-16T08:43:45;6.47;;;3.38;;
37973;SDS011;23796;51.458;7.000;2023-07-16T08:46:15;8.57;;;3.03;;
37973;SDS011;23796;51.458;7.000;2023-07-16T08:48:40;7.03;;;3.10;;
37973;SDS011;23796;51.458;7.000;2023-07-16T08:51:06;7.30;;;3.22;;
37973;SDS011;23796;51.458;7.000;2023-07-16T08:53:36;5.85;;;2.83;;
37973;SDS011;23796;51.458;7.000;2023-07-16T08:56:02;7.72;;;3.05;;
37973;SDS011;23796;51.458;7.000;2023-07-16T08:58:31;5.78;;;3.20;;
37973;SDS011;23796;51.458;7.000;2023-07-16T09:00:59;8.80;;;2.70;;
37973;SDS011;23796;51.458;7.000;2023-07-16T09:03:26;6.88;;;3.00;;
37973;SDS011;23796;51.458;7.000;2023-07-16T09:05:53;8.27;;;2.85;;
37973;SDS011;23796;51.458;7.000;2023-07-16T09:08:21;8.43;;;3.42;;
37973;SDS011;23796;51.458;7.000;2023-07-16T09:10:53;10.82;;;2.95;;
37973;SDS011;23796;51.458;7.000;2023-07-16T09:13:22;6.90;;;3.00;;
37973;SDS011;23796;51.458;7.000;2023-07-16T09:15:52;6.68;;;3.28;;
37973;SDS011;23796;51.458;7.000;2023-07-16T09:18:22;6.88;;;3.40;;
37973;SDS011;23796;51.458;7.000;2023-07-16T09:20:56;9.38;;;3.38;;
37973;SDS011;23796;51.458;7.000;2023-07-16T09:23:25;8.25;;;2.90;;
37973;SDS011;23796;51.458;7.000;2023-07-16T09:25:54;6.47;;;3.30;;
37973;SDS011;23796;51.458;7.000;2023-07-16T09:28:20;6.47;;;2.83;;
37973;SDS011;23796;51.458;7.000;2023-07-16T09:30:48;4.95;;;2.60;;
37973;SDS011;23796;51.458;7.000;2023-07-16T09:35:41;5.78;;;2.45;;
37973;SDS011;23796;51.458;7.000;2023-07-16T09:38:10;6.88;;;2.75;;
37973;SDS011;23796;51.458;7.000;2023-07-16T09:40:36;7.32;;;2.63;;
37973;SDS011;23796;51.458;7.000;2023-07-16T09:43:03;7.05;;;2.60;;
37973;SDS011;23796;51.458;7.000;2023-07-16T09:45:32;7.88;;;2.97;;
37973;SDS011;23796;51.458;7.000;2023-07-16T09:47:58;6.97;;;2.90;;
37973;SDS011;23796;51.458;7.000;2023-07-16T09:50:23;6.57;;;2.95;;
37973;SDS011;23796;51.458;7.000;2023-07-16T09:52:51;5.65;;;2.72;;
37973;SDS011;23796;51.458;7.000;2023-07-16T09:55:16;7.90;;;2.75;;
37973;SDS011;23796;51.458;7.000;2023-07-16T09:57:46;9.35;;;2.80;;
37973;SDS011;23796;51.458;7.000;2023-07-16T10:00:13;5.85;;;3.20;;
37973;SDS011;23796;51.458;7.000;2023-07-16T10:02:41;7.05;;;3.33;;
37973;SDS011;23796;51.458;7.000;2023-07-16T10:05:20;6.20;;;3.10;;
37973;SDS011;23796;51.458;7.000;2023-07-16T10:07:51;6.55;;;2.65;;
37973;SDS011;23796;51.458;7.000;2023-07-16T10:10:20;6.30;;;2.60;;
37973;SDS011;23796;51.458;7.000;2023-07-16T10:13:01;4.95;;;2.33;;
37973;SDS011;23796;51.458;7.000;2023-07-16T10:15:27;6.20;;;2.22;;
37973;SDS011;23796;51.458;7.000;2023-07-16T10:17:54;5.90;;;2.13;;
37973;SDS011;23796;51.458;7.000;2023-07-16T10:20:28;6.82;;;2.85;;
37973;SDS011;23796;51.458;7.000;2023-07-16T10:22:55;7.72;;;3.40;;
37973;SDS011;23796;51.458;7.000;2023-07-16T10:27:46;7.53;;;2.47;;
37973;SDS011;23796;51.458;7.000;2023-07-16T10:30:13;6.20;;;2.60;;
37973;SDS011;23796;51.458;7.000;2023-07-16T10:32:39;6.45;;;3.13;;
37973;SDS011;23796;51.458;7.000;2023-07-16T10:35:05;7.68;;;2.92;;
37973;SDS011;23796;51.458;7.000;2023-07-16T10:37:32;6.93;;;2.65;;
37973;SDS011;23796;51.458;7.000;2023-07-16T10:40:00;7.72;;;2.42;;
37973;SDS011;23796;51.458;7.000;2023-07-16T10:42:29;8.60;;;2.35;;
37973;SDS011;23796;51.458;7.000;2023-07-16T10:44:59;5.95;;;3.58;;
37973;SDS011;23796;51.458;7.000;2023-07-16T10:47:30;5.78;;;2.50;;
37973;SDS011;23796;51.458;7.000;2023-07-16T10:49:59;5.60;;;2.30;;
37973;SDS011;23796;51.458;7.000;2023-07-16T10:52:25;6.38;;;2.60;;
37973;SDS011;23796;51.458;7.000;2023-07-16T10:54:52;6.25;;;2.55;;
37973;SDS011;23796;51.458;7.000;2023-07-16T10:57:25;4.68;;;2.15;;
37973;SDS011;23796;51.458;7.000;2023-07-16T10:59:55;7.35;;;2.45;;
37973;SDS011;23796;51.458;7.000;2023-07-16T11:02:25;4.78;;;2.40;;
37973;SDS011;23796;51.458;7.000;2023-07-16T11:04:51;6.80;;;2.63;;
37973;SDS011;23796;51.458;7.000;2023-07-16T11:07:26;5.72;;;3.05;;
37973;SDS011;23796;51.458;7.000;2023-07-16T11:09:52;6.38;;;2.67;;
37973;SDS011;23796;51.458;7.000;2023-07-16T11:12:22;6.22;;;2.88;;
37973;SDS011;23796;51.458;7.000;2023-07-16T11:14:53;8.73;;;3.15;;
37973;SDS011;23796;51.458;7.000;2023-07-16T11:17:23;5.53;;;2.47;;
37973;SDS011;23796;51.458;7.000;2023-07-16T11:19:52;7.03;;;3.03;;
37973;SDS011;23796;51.458;7.000;2023-07-16T11:22:24;5.18;;;2.70;;
37973;SDS011;23796;51.458;7.000;2023-07-16T11:24:56;5.47;;;2.67;;
37973;SDS011;23796;51.458;7.000;2023-07-16T11:27:25;6.10;;;2.72;;
37973;SDS011;23796;51.458;7.000;2023-07-16T11:29:53;6.22;;;2.80;;
37973;SDS011;23796;51.458;7.000;2023-07-16T11:34:52;5.50;;;2.90;;
37973;SDS011;23796;51.458;7.000;2023-07-16T11:37:27;6.93;;;2.42;;
37973;SDS011;23796;51.458;7.000;2023-07-16T11:39:57;5.63;;;2.50;;
37973;SDS011;23796;51.458;7.000;2023-07-16T11:42:27;6.55;;;3.20;;
37973;SDS011;23796;51.458;7.000;2023-07-16T11:45:15;4.45;;;2.53;;
37973;SDS011;23796;51.458;7.000;2023-07-16T11:47:42;5.55;;;2.17;;
37973;SDS011;23796;51.458;7.000;2023-07-16T11:50:08;6.20;;;2.40;;
37973;SDS011;23796;51.458;7.000;2023-07-16T11:52:36;6.07;;;2.20;;
37973;SDS011;23796;51.458;7.000;2023-07-16T11:55:04;4.45;;;2.40;;
37973;SDS011;23796;51.458;7.000;2023-07-16T11:57:32;5.18;;;2.20;;
37973;SDS011;23796;51.458;7.000;2023-07-16T11:59:58;4.30;;;1.98;;
37973;SDS011;23796;51.458;7.000;2023-07-16T12:02:29;6.30;;;2.22;;
37973;SDS011;23796;51.458;7.000;2023-07-16T12:04:57;7.30;;;2.53;;
37973;SDS011;23796;51.458;7.000;2023-07-16T12:09:58;7.97;;;2.78;;
37973;SDS011;23796;51.458;7.000;2023-07-16T12:12:25;5.45;;;2.40;;
37973;SDS011;23796;51.458;7.000;2023-07-16T12:14:51;5.45;;;2.40;;
37973;SDS011;23796;51.458;7.000;2023-07-16T12:17:17;4.53;;;2.30;;
37973;SDS011;23796;51.458;7.000;2023-07-16T12:19:42;5.45;;;1.98;;
37973;SDS011;23796;51.458;7.000;2023-07-16T12:22:08;6.18;;;2.25;;
37973;SDS011;23796;51.458;7.000;2023-07-16T12:24:34;5.38;;;2.20;;
37973;SDS011;23796;51.458;7.000;2023-07-16T12:27:00;3.47;;;2.25;;
37973;SDS011;23796;51.458;7.000;2023-07-16T12:29:25;3.88;;;2.05;;
37973;SDS011;23796;51.458;7.000;2023-07-16T12:31:55;5.20;;;2.40;;
37973;SDS011;23796;51.458;7.000;2023-07-16T12:34:24;5.57;;;2.10;;
37973;SDS011;23796;51.458;7.000;2023-07-16T12:36:52;4.57;;;2.45;;
37973;SDS011;23796;51.458;7.000;2023-07-16T12:39:19;5.53;;;2.40;;
37973;SDS011;23796;51.458;7.000;2023-07-16T12:41:45;6.05;;;2.30;;
37973;SDS011;23796;51.458;7.000;2023-07-16T12:44:11;4.60;;;2.22;;
37973;SDS011;23796;51.458;7.000;2023-07-16T12:46:39;6.72;;;2.40;;
37973;SDS011;23796;51.458;7.000;2023-07-16T12:49:04;4.72;;;2.05;;
37973;SDS011;23796;51.458;7.000;2023-07-16T12:51:32;5.90;;;2.80;;
37973;SDS011;23796;51.458;7.000;2023-07-16T12:54:00;4.07;;;2.13;;
37973;SDS011;23796;51.458;7.000;2023-07-16T12:56:26;6.15;;;2.47;;
37973;SDS011;23796;51.458;7.000;2023-07-16T12:58:52;5.30;;;2.05;;
37973;SDS011;23796;51.458;7.000;2023-07-16T13:01:17;5.68;;;2.30;;
37973;SDS011;23796;51.458;7.000;2023-07-16T13:03:45;6.70;;;2.47;;
37973;SDS011;23796;51.458;7.000;2023-07-16T13:06:11;4.13;;;2.13;;
37973;SDS011;23796;51.458;7.000;2023-07-16T13:08:36;4.93;;;2.33;;
37973;SDS011;23796;51.458;7.000;2023-07-16T13:11:02;5.07;;;2.40;;
37973;SDS011;23796;51.458;7.000;2023-07-16T13:13:27;6.05;;;2.67;;
37973;SDS011;23796;51.458;7.000;2023-07-16T13:15:53;4.43;;;2.50;;
37973;SDS011;23796;51.458;7.000;2023-07-16T13:18:24;5.38;;;2.55;;
37973;SDS011;23796;51.458;7.000;2023-07-16T13:20:50;4.95;;;2.65;;
37973;SDS011;23796;51.458;7.000;2023-07-16T13:23:18;6.10;;;4.25;;
37973;SDS011;23796;51.458;7.000;2023-07-16T13:25:43;4.97;;;2.78;;
37973;SDS011;23796;51.458;7.000;2023-07-16T13:28:09;6.40;;;2.60;;
37973;SDS011;23796;51.458;7.000;2023-07-16T13:30:37;4.53;;;2.05;;
37973;SDS011;23796;51.458;7.000;2023-07-16T13:33:03;5.00;;;2.25;;
37973;SDS011;23796;51.458;7.000;2023-07-16T13:35:31;5.85;;;2.78;;
37973;SDS011;23796;51.458;7.000;2023-07-16T13:37:56;7.05;;;2.50;;
37973;SDS011;23796;51.458;7.000;2023-07-16T13:40:22;6.13;;;2.45;;
37973;SDS011;23796;51.458;7.000;2023-07-16T13:42:50;5.05;;;2.67;;
37973;SDS011;23796;51.458;7.000;2023-07-16T13:45:15;4.97;;;2.13;;
37973;SDS011;23796;51.458;7.000;2023-07-16T13:47:41;5.28;;;2.75;;
37973;SDS011;23796;51.458;7.000;2023-07-16T13:50:09;6.10;;;2.40;;
37973;SDS011;23796;51.458;7.000;2023-07-16T13:52:35;4.93;;;2.45;;
37973;SDS011;23796;51.458;7.000;2023-07-16T13:55:04;4.25;;;2.13;;
37973;SDS011;23796;51.458;7.000;2023-07-16T13:57:32;4.47;;;2.20;;
37973;SDS011;23796;51.458;7.000;2023-07-16T13:59:58;3.90;;;2.20;;
37973;SDS011;23796;51.458;7.000;2023-07-16T14:02:25;5.85;;;2.58;;
37973;SDS011;23796;51.458;7.000;2023-07-16T14:04:50;5.00;;;2.55;;
37973;SDS011;23796;51.458;7.000;2023-07-16T14:07:16;5.22;;;2.28;;
37973;SDS011;23796;51.458;7.000;2023-07-16T14:09:42;4.07;;;2.30;;
37973;SDS011;23796;51.458;7.000;2023-07-16T14:12:07;5.07;;;2.53;;
37973;SDS011;23796;51.458;7.000;2023-07-16T14:14:33;3.90;;;2.15;;
37973;SDS011;23796;51.458;7.000;2023-07-16T14:16:58;6.28;;;2.33;;
37973;SDS011;23796;51.458;7.000;2023-07-16T14:19:24;8.07;;;2.95;;
37973;SDS011;23796;51.458;7.000;2023-07-16T14:21:52;4.65;;;2.00;;
37973;SDS011;23796;51.458;7.000;2023-07-16T14:24:18;3.58;;;1.83;;
37973;SDS011;23796;51.458;7.000;2023-07-16T14:26:43;4.32;;;2.05;;
37973;SDS011;23796;51.458;7.000;2023-07-16T14:29:14;5.57;;;1.98;;
37973;SDS011;23796;51.458;7.000;2023-07-16T14:31:40;3.58;;;2.38;;
37973;SDS011;23796;51.458;7.000;2023-07-16T14:34:08;5.55;;;2.40;;
37973;SDS011;23796;51.458;7.000;2023-07-16T14:36:33;5.20;;;1.90;;
37973;SDS011;23796;51.458;7.000;2023-07-16T14:38:59;4.22;;;2.15;;
37973;SDS011;23796;51.458;7.000;2023-07-16T14:41:25;4.43;;;2.05;;
37973;SDS011;23796;51.458;7.000;2023-07-16T14:43:53;4.57;;;2.38;;
37973;SDS011;23796;51.458;7.000;2023-07-16T14:46:18;4.32;;;1.77;;
37973;SDS011;23796;51.458;7.000;2023-07-16T14:48:44;6.85;;;2.15;;
37973;SDS011;23796;51.458;7.000;2023-07-16T14:51:10;5.10;;;2.10;;
37973;SDS011;23796;51.458;7.000;2023-07-16T14:53:38;4.95;;;1.70;;
37973;SDS011;23796;51.458;7.000;2023-07-16T14:56:04;4.93;;;2.10;;
37973;SDS011;23796;51.458;7.000;2023-07-16T14:58:32;4.45;;;1.60;;
37973;SDS011;23796;51.458;7.000;2023-07-16T15:01:02;3.55;;;1.60;;
37973;SDS011;23796;51.458;7.000;2023-07-16T15:03:32;3.42;;;1.60;;
37973;SDS011;23796;51.458;7.000;2023-07-16T15:06:01;2.70;;;1.40;;
37973;SDS011;23796;51.458;7.000;2023-07-16T15:08:27;3.58;;;1.83;;